createdAt,value
2017-11-25T00:01:21.615Z,88.87
2017-11-25T00:04:24.368Z,85.33
2017-11-25T00:07:26.449Z,79.50
2017-11-25T00:10:28.468Z,106.37
2017-11-25T00:13:31.129Z,89.23
2017-11-25T00:16:33.158Z,106.77
2017-11-25T00:19:35.930Z,108.93
2017-11-25T00:22:37.899Z,99.30
2017-11-25T00:25:39.832Z,106.07
2017-11-25T00:28:41.866Z,101.07
2017-11-25T00:31:43.781Z,93.77
2017-11-25T00:34:46.666Z,92.63
2017-11-25T00:37:49.358Z,107.40
2017-11-25T00:40:51.338Z,91.87
2017-11-25T00:43:53.322Z,99.83
2017-11-25T00:46:55.310Z,87.73
2017-11-25T00:49:57.305Z,95.13
2017-11-25T00:52:59.995Z,90.27
2017-11-25T00:56:02.031Z,96.90
2017-11-25T00:59:04.030Z,103.40
2017-11-25T01:02:05.957Z,102.33
2017-11-25T01:05:07.959Z,123.47
2017-11-25T01:08:10.664Z,122.97
2017-11-25T01:11:12.666Z,116.33
2017-11-25T01:14:14.587Z,121.17
2017-11-25T01:17:16.590Z,126.10
2017-11-25T01:20:18.531Z,117.10
2017-11-25T01:23:20.471Z,123.43
2017-11-25T01:26:23.236Z,102.90
2017-11-25T01:29:25.235Z,118.20
2017-11-25T01:32:29.181Z,112.40
2017-11-25T01:35:31.120Z,125.20
2017-11-25T01:38:33.021Z,108.20
2017-11-25T01:41:35.114Z,110.07
2017-11-25T01:44:38.539Z,99.83
2017-11-25T01:47:40.504Z,98.73
2017-11-25T01:50:42.442Z,107.83
2017-11-25T01:53:44.414Z,98.53
2017-11-25T01:56:46.329Z,96.97
2017-11-25T01:59:48.290Z,92.53
2017-11-25T02:02:50.211Z,90.63
2017-11-25T02:05:52.955Z,98.90
2017-11-25T02:08:55.626Z,94.50
2017-11-25T02:11:57.591Z,96.77
2017-11-25T02:14:59.493Z,93.07
2017-11-25T02:18:02.210Z,94.30
2017-11-25T02:21:04.872Z,95.17
2017-11-25T02:24:06.824Z,77.23
2017-11-25T02:27:08.752Z,77.10
2017-11-25T02:30:10.675Z,73.50
2017-11-25T02:33:12.606Z,78.33
2017-11-25T02:36:14.611Z,81.93
2017-11-25T02:39:16.530Z,76.27
2017-11-25T02:42:18.479Z,79.30
2017-11-25T02:45:21.139Z,82.97
2017-11-25T02:48:23.370Z,84.77
2017-11-25T02:51:26.059Z,78.20
2017-11-25T02:54:27.992Z,66.03
2017-11-25T02:57:29.931Z,77.90
2017-11-25T03:00:32.637Z,77.77
2017-11-25T03:03:36.185Z,72.23
2017-11-25T03:06:38.101Z,65.10
2017-11-25T03:09:40.039Z,71.10
2017-11-25T03:12:41.962Z,73.73
2017-11-25T03:15:43.890Z,64.47
2017-11-25T03:18:46.783Z,71.57
2017-11-25T03:21:49.482Z,74.83
2017-11-25T03:24:52.241Z,74.00
2017-11-25T03:27:54.156Z,63.90
2017-11-25T03:30:56.874Z,69.60
2017-11-25T03:33:59.565Z,75.73
2017-11-25T03:37:02.266Z,72.23
2017-11-25T03:40:05.062Z,66.23
2017-11-25T03:43:07.755Z,80.90
2017-11-25T03:46:09.715Z,86.50
2017-11-25T03:49:11.687Z,72.23
2017-11-25T03:52:13.600Z,73.17
2017-11-25T03:55:15.522Z,81.97
2017-11-25T03:58:17.448Z,81.50
2017-11-25T04:01:19.573Z,73.53
2017-11-25T04:04:22.242Z,82.77
2017-11-25T04:07:24.160Z,76.60
2017-11-25T04:10:26.848Z,94.90
2017-11-25T04:13:29.527Z,80.33
2017-11-25T04:16:31.439Z,76.03
2017-11-25T04:19:34.123Z,85.13
2017-11-25T04:22:36.844Z,76.37
2017-11-25T04:25:38.780Z,81.40
2017-11-25T04:28:41.445Z,68.07
2017-11-25T04:31:43.466Z,75.50
2017-11-25T04:34:45.405Z,69.43
2017-11-25T04:37:48.000Z,69.50
2017-11-25T04:40:49.926Z,65.13
2017-11-25T04:43:51.902Z,69.30
2017-11-25T04:46:53.812Z,72.50
2017-11-25T04:49:55.730Z,65.30
2017-11-25T04:52:57.650Z,64.13
2017-11-25T04:55:59.582Z,66.43
2017-11-25T04:59:01.483Z,67.37
2017-11-25T05:02:03.438Z,67.33
2017-11-25T05:05:06.156Z,67.83
2017-11-25T05:08:08.052Z,67.63
2017-11-25T05:11:11.228Z,66.03
2017-11-25T05:14:13.924Z,61.27
2017-11-25T05:17:16.613Z,68.50
2017-11-25T05:20:19.285Z,69.17
2017-11-25T05:23:21.195Z,79.77
2017-11-25T05:26:23.108Z,78.47
2017-11-25T05:29:25.022Z,93.83
2017-11-25T05:32:26.962Z,74.33
2017-11-25T05:35:28.916Z,78.93
2017-11-25T05:38:30.876Z,81.23
2017-11-25T05:41:32.850Z,73.53
2017-11-25T05:44:34.836Z,76.73
2017-11-25T05:47:36.790Z,83.93
2017-11-25T05:50:38.709Z,86.90
2017-11-25T05:53:40.709Z,80.00
2017-11-25T05:56:42.644Z,87.80
2017-11-25T05:59:44.557Z,82.43
2017-11-25T06:02:46.531Z,80.67
2017-11-25T06:05:48.524Z,82.27
2017-11-25T06:08:50.468Z,93.10
2017-11-25T06:11:52.423Z,89.67
2017-11-25T06:14:55.182Z,95.97
2017-11-25T06:17:57.086Z,88.43
2017-11-25T06:20:59.015Z,87.60
2017-11-25T06:24:00.950Z,86.33
2017-11-25T06:27:02.912Z,93.30
2017-11-25T06:30:04.878Z,89.87
2017-11-25T06:33:06.794Z,91.03
2017-11-25T06:36:08.791Z,90.20
2017-11-25T06:39:11.454Z,87.77
2017-11-25T06:42:14.213Z,96.17
2017-11-25T06:45:16.139Z,121.20
2017-11-25T06:48:18.665Z,80.33
2017-11-25T06:51:21.453Z,75.30
2017-11-25T06:54:23.428Z,78.07
2017-11-25T06:57:25.446Z,79.13
2017-11-25T07:00:28.234Z,90.90
2017-11-25T07:03:31.039Z,83.70
2017-11-25T07:06:33.826Z,74.47
2017-11-25T07:09:36.543Z,70.43
2017-11-25T07:12:39.340Z,73.20
2017-11-25T07:15:42.117Z,75.47
2017-11-25T07:18:44.017Z,115.90
2017-11-25T07:21:45.951Z,82.03
2017-11-25T07:24:47.849Z,119.63
2017-11-25T07:27:49.794Z,97.53
2017-11-25T07:30:51.754Z,69.50
2017-11-25T07:33:54.462Z,88.37
2017-11-25T07:36:57.218Z,133.23
2017-11-25T07:39:59.191Z,281.90
2017-11-25T07:43:01.503Z,117.10
2017-11-25T07:46:03.421Z,193.93
2017-11-25T07:49:06.120Z,146.20
2017-11-25T07:52:08.840Z,139.47
2017-11-25T07:55:10.741Z,154.37
2017-11-25T07:58:12.756Z,98.33
2017-11-25T08:01:14.666Z,115.90
2017-11-25T08:04:17.421Z,130.60
2017-11-25T08:07:19.369Z,106.77
2017-11-25T08:10:21.294Z,125.77
2017-11-25T08:13:23.396Z,168.13
2017-11-25T08:16:25.591Z,133.73
2017-11-25T08:19:27.567Z,123.50
2017-11-25T08:22:29.476Z,174.33
2017-11-25T08:25:32.152Z,97.90
2017-11-25T08:28:34.052Z,63.47
2017-11-25T08:31:36.829Z,97.23
2017-11-25T08:34:38.790Z,75.10
2017-11-25T08:37:40.784Z,69.33
2017-11-25T08:40:42.787Z,107.50
2017-11-25T08:43:44.750Z,53.87
2017-11-25T08:46:46.966Z,56.37
2017-11-25T08:49:49.743Z,51.80
2017-11-25T08:52:51.669Z,79.83
2017-11-25T08:55:53.613Z,47.30
2017-11-25T08:58:55.608Z,46.57
2017-11-25T09:01:57.586Z,43.47
2017-11-25T09:04:59.519Z,64.90
2017-11-25T09:08:01.579Z,75.23
2017-11-25T09:11:04.262Z,86.63
2017-11-25T09:14:06.248Z,36.53
2017-11-25T09:17:09.658Z,64.80
2017-11-25T09:20:11.602Z,79.40
2017-11-25T09:23:13.654Z,59.03
2017-11-25T09:26:16.347Z,142.73
2017-11-25T09:29:19.198Z,53.73
2017-11-25T09:32:21.117Z,55.23
2017-11-25T09:35:23.020Z,39.57
2017-11-25T09:38:25.714Z,83.37
2017-11-25T09:41:28.402Z,63.77
2017-11-25T09:44:31.082Z,76.83
2017-11-25T09:47:32.991Z,58.87
2017-11-25T09:50:35.709Z,36.60
2017-11-25T09:53:37.709Z,46.60
2017-11-25T09:56:39.639Z,68.00
2017-11-25T09:59:41.623Z,94.20
2017-11-25T10:02:43.645Z,59.10
2017-11-25T10:05:45.567Z,96.77
2017-11-25T10:08:47.555Z,91.53
2017-11-25T10:11:49.629Z,76.73
2017-11-25T10:14:51.534Z,78.20
2017-11-25T10:17:54.259Z,50.13
2017-11-25T10:20:57.041Z,50.60
2017-11-25T10:23:59.962Z,42.23
2017-11-25T10:27:02.645Z,46.00
2017-11-25T10:30:04.572Z,25.20
2017-11-25T10:33:06.499Z,34.10
2017-11-25T10:36:08.404Z,23.17
2017-11-25T10:39:11.175Z,20.67
2017-11-25T10:42:13.079Z,18.10
2017-11-25T10:45:15.028Z,20.47
2017-11-25T10:48:16.949Z,16.37
2017-11-25T10:51:18.876Z,19.13
2017-11-25T10:54:20.782Z,22.40
2017-11-25T10:57:22.874Z,17.10
2017-11-25T11:00:24.790Z,16.87
2017-11-25T11:03:27.479Z,17.83
2017-11-25T11:06:29.524Z,18.20
2017-11-25T11:09:31.436Z,13.63
2017-11-25T11:12:33.396Z,13.57
2017-11-25T11:15:35.366Z,14.30
2017-11-25T11:18:37.484Z,13.62
2017-11-25T11:21:39.405Z,11.73
2017-11-25T11:24:42.187Z,11.18
2017-11-25T11:27:44.266Z,10.13
2017-11-25T11:30:46.203Z,10.07
2017-11-25T11:33:48.178Z,10.80
2017-11-25T11:36:50.092Z,9.40
2017-11-25T11:39:52.010Z,9.40
2017-11-25T11:42:54.911Z,7.95
2017-11-25T11:45:57.713Z,7.20
2017-11-25T11:49:00.375Z,8.05
2017-11-25T11:52:02.303Z,7.25
2017-11-25T11:55:04.992Z,7.30
2017-11-25T11:58:07.760Z,6.57
2017-11-25T12:01:09.711Z,5.78
2017-11-25T12:04:11.606Z,5.53
2017-11-25T12:07:13.561Z,5.85
2017-11-25T12:10:15.455Z,5.75
2017-11-25T12:13:17.417Z,5.18
2017-11-25T12:16:20.101Z,5.28
2017-11-25T12:19:22.025Z,4.75
2017-11-25T12:22:23.970Z,5.68
2017-11-25T12:25:25.924Z,6.05
2017-11-25T12:28:27.914Z,4.97
2017-11-25T12:31:29.838Z,4.70
2017-11-25T12:34:32.515Z,4.37
2017-11-25T12:37:34.430Z,4.20
2017-11-25T12:40:36.326Z,5.00
2017-11-25T12:43:38.244Z,5.25
2017-11-25T12:46:40.226Z,4.15
2017-11-25T12:49:42.334Z,3.85
2017-11-25T12:52:45.252Z,8.00
2017-11-25T12:55:47.200Z,5.40
2017-11-25T12:58:49.127Z,4.03
2017-11-25T13:01:51.850Z,7.78
2017-11-25T13:04:53.813Z,4.30
2017-11-25T13:07:56.570Z,6.15
2017-11-25T13:10:58.490Z,5.30
2017-11-25T13:14:01.259Z,7.82
2017-11-25T13:17:03.156Z,8.57
2017-11-25T13:20:05.259Z,5.10
2017-11-25T13:23:07.951Z,8.10
2017-11-25T13:26:09.929Z,3.33
2017-11-25T13:29:11.846Z,3.08
2017-11-25T13:32:13.799Z,4.55
2017-11-25T13:35:15.733Z,3.12
2017-11-25T13:38:17.777Z,3.17
2017-11-25T13:41:19.720Z,3.10
2017-11-25T13:44:21.693Z,5.32
2017-11-25T13:47:23.594Z,2.75
2017-11-25T13:50:25.546Z,4.23
2017-11-25T13:53:27.466Z,2.43
2017-11-25T13:56:29.380Z,3.43
2017-11-25T13:59:32.070Z,2.93
2017-11-25T14:02:34.788Z,5.17
2017-11-25T14:05:36.727Z,2.70
2017-11-25T14:08:38.646Z,3.67
2017-11-25T14:11:41.302Z,4.97
2017-11-25T14:14:43.256Z,4.47
2017-11-25T14:17:45.177Z,3.73
2017-11-25T14:20:47.290Z,3.20
2017-11-25T14:23:49.967Z,4.10
2017-11-25T14:26:51.891Z,4.03
2017-11-25T14:29:53.858Z,4.60
2017-11-25T14:32:56.570Z,4.50
2017-11-25T14:35:59.379Z,5.33
2017-11-25T14:39:01.309Z,7.30
2017-11-25T14:42:03.426Z,6.73
2017-11-25T14:45:06.261Z,8.67
2017-11-25T14:48:08.177Z,5.07
2017-11-25T14:51:10.104Z,6.60
2017-11-25T14:54:12.766Z,5.47
2017-11-25T14:57:14.708Z,62.80
2017-11-25T15:00:17.096Z,16.77
2017-11-25T15:03:19.610Z,9.63
2017-11-25T15:06:21.531Z,7.03
2017-11-25T15:09:23.514Z,16.00
2017-11-25T15:12:25.443Z,51.73
2017-11-25T15:15:27.383Z,87.50
2017-11-25T15:18:30.063Z,33.90
2017-11-25T15:21:31.986Z,9.50
2017-11-25T15:24:33.902Z,7.67
2017-11-25T15:27:35.866Z,16.07
2017-11-25T15:30:37.755Z,6.53
2017-11-25T15:33:39.798Z,11.33
2017-11-25T15:36:42.489Z,8.63
2017-11-25T15:39:44.446Z,8.90
2017-11-25T15:42:46.347Z,9.03
2017-11-25T15:45:48.269Z,9.23
2017-11-25T15:48:50.166Z,7.57
2017-11-25T15:51:52.088Z,11.37
2017-11-25T15:54:54.003Z,6.57
2017-11-25T15:57:56.726Z,9.27
2017-11-25T16:00:58.624Z,11.00
2017-11-25T16:04:00.550Z,9.17
2017-11-25T16:07:03.234Z,10.20
2017-11-25T16:10:05.277Z,9.33
2017-11-25T16:13:07.214Z,7.70
2017-11-25T16:16:09.242Z,6.60
2017-11-25T16:19:11.160Z,10.63
2017-11-25T16:22:13.219Z,6.47
2017-11-25T16:25:15.116Z,7.43
2017-11-25T16:28:17.097Z,11.47
2017-11-25T16:31:18.998Z,8.63
2017-11-25T16:34:20.924Z,7.73
2017-11-25T16:37:22.851Z,8.07
2017-11-25T16:40:24.803Z,8.60
2017-11-25T16:43:26.815Z,11.20
2017-11-25T16:46:28.738Z,12.20
2017-11-25T16:49:31.488Z,10.67
2017-11-25T16:52:33.487Z,11.27
2017-11-25T16:55:35.405Z,9.07
2017-11-25T16:58:38.166Z,9.30
2017-11-25T17:01:40.169Z,7.63
2017-11-25T17:04:42.119Z,7.93
2017-11-25T17:07:44.027Z,9.47
2017-11-25T17:10:46.101Z,12.87
2017-11-25T17:13:48.030Z,9.20
2017-11-25T17:16:50.083Z,8.43
2017-11-25T17:19:51.980Z,10.70
2017-11-25T17:22:55.263Z,8.23
2017-11-25T17:25:57.182Z,9.03
2017-11-25T17:28:59.111Z,7.80
2017-11-25T17:32:01.127Z,11.10
2017-11-25T17:35:03.045Z,9.80
2017-11-25T17:38:05.070Z,9.67
2017-11-25T17:41:07.021Z,14.53
2017-11-25T17:44:08.939Z,12.13
2017-11-25T17:47:10.921Z,13.17
2017-11-25T17:50:12.908Z,10.50
2017-11-25T17:53:14.919Z,16.00
2017-11-25T17:56:17.628Z,19.50
2017-11-25T17:59:20.422Z,22.23
2017-11-25T18:02:22.344Z,24.23
2017-11-25T18:05:24.278Z,11.93
2017-11-25T18:08:26.207Z,17.40
2017-11-25T18:11:28.152Z,12.77
2017-11-25T18:14:30.920Z,12.57
2017-11-25T18:17:32.940Z,11.07
2017-11-25T18:20:35.847Z,13.47
2017-11-25T18:23:38.626Z,12.70
2017-11-25T18:26:40.516Z,10.87
2017-11-25T18:29:42.478Z,12.53
2017-11-25T18:32:44.378Z,10.33
2017-11-25T18:35:46.303Z,13.63
2017-11-25T18:38:48.227Z,13.63
2017-11-25T18:41:50.207Z,10.93
2017-11-25T18:44:52.125Z,11.53
2017-11-25T18:47:54.811Z,13.77
2017-11-25T18:50:57.502Z,10.47
2017-11-25T18:53:59.714Z,18.37
2017-11-25T18:57:01.687Z,12.37
2017-11-25T19:00:03.596Z,14.63
2017-11-25T19:03:06.273Z,17.43
2017-11-25T19:06:08.256Z,10.90
2017-11-25T19:09:10.265Z,11.43
2017-11-25T19:12:12.974Z,12.97
2017-11-25T19:15:15.735Z,10.17
2017-11-25T19:18:18.684Z,12.07
2017-11-25T19:21:21.347Z,13.43
2017-11-25T19:24:23.267Z,10.00
2017-11-25T19:27:25.956Z,11.93
2017-11-25T19:30:28.048Z,11.53
2017-11-25T19:33:29.946Z,12.33
2017-11-25T19:36:32.634Z,12.30
2017-11-25T19:39:35.322Z,25.30
2017-11-25T19:42:37.246Z,39.47
2017-11-25T19:45:39.176Z,127.13
2017-11-25T19:48:42.052Z,28.90
2017-11-25T19:51:44.064Z,65.97
2017-11-25T19:54:46.063Z,16.70
2017-11-25T19:57:48.752Z,13.30
2017-11-25T20:00:50.685Z,11.53
2017-11-25T20:03:52.598Z,9.80
2017-11-25T20:06:54.522Z,8.77
2017-11-25T20:09:56.459Z,8.60
2017-11-25T20:12:58.375Z,8.03
2017-11-25T20:16:00.281Z,9.10
2017-11-25T20:19:02.994Z,12.20
2017-11-25T20:22:04.943Z,9.40
2017-11-25T20:25:08.060Z,9.30
2017-11-25T20:28:10.716Z,12.77
2017-11-25T20:31:12.647Z,10.30
2017-11-25T20:34:15.389Z,8.70
2017-11-25T20:37:17.338Z,12.20
2017-11-25T20:40:19.261Z,11.80
2017-11-25T20:43:21.402Z,8.60
2017-11-25T20:46:24.094Z,11.50
2017-11-25T20:49:26.809Z,11.43
2017-11-25T20:52:29.589Z,11.20
2017-11-25T20:55:31.559Z,10.60
2017-11-25T20:58:33.473Z,11.37
2017-11-25T21:01:36.158Z,10.37
2017-11-25T21:04:38.858Z,12.67
2017-11-25T21:07:40.941Z,9.03
2017-11-25T21:10:43.409Z,7.23
2017-11-25T21:13:45.365Z,8.73
2017-11-25T21:16:47.281Z,10.57
2017-11-25T21:19:49.204Z,6.80
2017-11-25T21:22:51.107Z,7.53
2017-11-25T21:25:53.050Z,6.90
2017-11-25T21:28:55.862Z,10.27
2017-11-25T21:31:58.564Z,8.07
2017-11-25T21:35:01.222Z,7.20
2017-11-25T21:38:03.158Z,9.60
2017-11-25T21:41:05.051Z,7.77
2017-11-25T21:44:06.967Z,6.93
2017-11-25T21:47:08.868Z,6.83
2017-11-25T21:50:10.832Z,7.53
2017-11-25T21:53:12.810Z,7.60
2017-11-25T21:56:14.739Z,6.80
2017-11-25T21:59:17.418Z,8.40
2017-11-25T22:02:19.361Z,9.10
2017-11-25T22:05:21.283Z,11.67
2017-11-25T22:08:23.976Z,9.83
2017-11-25T22:11:25.961Z,8.80
2017-11-25T22:14:28.163Z,12.73
2017-11-25T22:17:31.774Z,8.47
2017-11-25T22:20:33.800Z,8.50
2017-11-25T22:23:35.738Z,9.77
2017-11-25T22:26:37.690Z,9.53
2017-11-25T22:29:39.679Z,12.53
2017-11-25T22:32:41.673Z,11.90
2017-11-25T22:35:43.582Z,11.93
2017-11-25T22:38:46.290Z,13.63
2017-11-25T22:41:48.982Z,15.13
2017-11-25T22:44:51.755Z,10.90
2017-11-25T22:47:54.456Z,14.83
2017-11-25T22:50:56.426Z,14.13
2017-11-25T22:53:58.528Z,14.20
2017-11-25T22:57:00.468Z,14.60
2017-11-25T23:00:02.548Z,18.50
2017-11-25T23:03:04.591Z,16.33
2017-11-25T23:06:06.551Z,13.80
2017-11-25T23:09:10.171Z,11.33
2017-11-25T23:12:12.206Z,11.70
2017-11-25T23:15:14.180Z,12.97
2017-11-25T23:18:16.854Z,12.00
2017-11-25T23:21:18.787Z,13.27
2017-11-25T23:24:20.678Z,10.50
2017-11-25T23:27:22.597Z,11.57
2017-11-25T23:30:24.569Z,10.60
2017-11-25T23:33:26.578Z,14.87
2017-11-25T23:36:28.702Z,16.17
2017-11-25T23:39:30.619Z,10.63
2017-11-25T23:42:32.630Z,10.13
2017-11-25T23:45:34.617Z,14.97
2017-11-25T23:48:36.576Z,12.13
2017-11-25T23:51:38.583Z,15.03
2017-11-25T23:54:41.239Z,12.60
2017-11-25T23:57:43.250Z,13.43
